Time;durP1;ratioP1;P1;durP2;ratioP2;P2;SDS_P1;SDS_P2;PMS_P1;PMS_P2;Temp;Humidity;BMP_temperature;BMP_pressure;BME280_temperature;BME280_humidity;BME280_pressure;Samples;Min_cycle;Max_cycle;Signal;HPM_P1;HPM_P2
2022/03/12 00:00:07;;;;;;;5.65;2.85;;;;;;;-3.08;68.86;95505.97;4959963;28;20209;-77
2022/03/12 00:02:35;;;;;;;4.05;2.85;;;;;;;-3.16;68.33;95509.72;4963643;28;20223;-78
2022/03/12 00:05:07;;;;;;;2.47;2.10;;;;;;;-3.16;68.06;95512.38;4965839;28;20225;-77
2022/03/12 00:07:35;;;;;;;0.88;0.88;;;;;;;-3.19;68.56;95512.00;4964172;28;20269;-77
2022/03/12 00:10:02;;;;;;;5.32;3.45;;;;;;;-3.30;68.69;95513.53;4959473;28;20613;-77
2022/03/12 00:12:37;;;;;;;6.28;4.10;;;;;;;-3.41;69.36;95506.28;4962542;28;20591;-75
2022/03/12 00:15:10;;;;;;;4.57;2.95;;;;;;;-3.42;69.33;95512.66;4966267;28;20202;-74
2022/03/12 00:17:39;;;;;;;6.68;3.67;;;;;;;-3.45;70.08;95521.84;4967007;28;20195;-78
2022/03/12 00:20:09;;;;;;;7.25;3.53;;;;;;;-3.27;70.60;95515.72;4960145;28;20206;-78
2022/03/12 00:22:37;;;;;;;5.00;2.78;;;;;;;-3.17;69.58;95524.00;4959350;28;20227;-78
2022/03/12 00:25:11;;;;;;;0.95;0.95;;;;;;;-3.17;69.39;95516.06;4954110;28;20644;-80
2022/03/12 00:27:41;;;;;;;5.53;3.85;;;;;;;-3.24;72.12;95520.59;4966989;28;20238;-78
2022/03/12 00:30:14;;;;;;;6.93;4.13;;;;;;;-3.34;76.96;95522.94;4953432;28;20211;-79
2022/03/12 00:32:42;;;;;;;9.93;3.88;;;;;;;-3.63;79.57;95522.59;4966948;28;20403;-79
2022/03/12 00:35:10;;;;;;;8.85;4.88;;;;;;;-3.89;81.39;95530.75;4965337;28;20230;-76
2022/03/12 00:37:38;;;;;;;12.32;4.45;;;;;;;-4.06;81.90;95540.25;4960459;28;20206;-81
2022/03/12 00:40:07;;;;;;;7.75;3.10;;;;;;;-4.10;83.32;95539.84;4962559;28;20213;-78
2022/03/12 00:42:33;;;;;;;8.00;4.15;;;;;;;-4.26;83.91;95539.56;4965344;28;20230;-80
2022/03/12 00:45:04;;;;;;;9.77;4.22;;;;;;;-4.24;84.98;95534.88;4952302;28;20217;-77
2022/03/12 00:47:32;;;;;;;10.07;5.25;;;;;;;-4.32;85.17;95534.09;4957855;28;20281;-79
2022/03/12 00:50:00;;;;;;;6.47;3.97;;;;;;;-4.28;85.30;95525.75;4961513;28;20285;-78
2022/03/12 00:52:27;;;;;;;10.48;5.90;;;;;;;-4.15;85.99;95530.94;4963774;28;20692;-79
2022/03/12 00:54:54;;;;;;;15.00;6.43;;;;;;;-4.03;85.29;95524.75;4963459;28;20202;-79
2022/03/12 00:57:21;;;;;;;15.95;6.13;;;;;;;-4.06;85.08;95529.66;4976549;28;20224;-80
2022/03/12 00:59:51;;;;;;;11.55;4.60;;;;;;;-4.02;85.18;95530.84;4975739;28;20218;-79
2022/03/12 01:02:19;;;;;;;10.93;4.28;;;;;;;-3.98;85.60;95532.06;4964759;28;20230;-80
2022/03/12 01:04:48;;;;;;;8.55;4.65;;;;;;;-4.06;85.53;95527.00;4963569;28;20258;-78
2022/03/12 01:07:16;;;;;;;9.95;5.18;;;;;;;-3.97;85.94;95533.69;4969232;28;20241;-78
2022/03/12 01:09:43;;;;;;;6.03;4.55;;;;;;;-3.67;85.25;95525.88;4970107;28;20220;-79
2022/03/12 01:12:10;;;;;;;8.52;4.78;;;;;;;-3.80;84.35;95533.94;4956112;28;20206;-78
2022/03/12 01:14:38;;;;;;;7.85;3.22;;;;;;;-3.90;85.40;95534.44;4968292;28;20206;-79
2022/03/12 01:17:06;;;;;;;15.40;6.00;;;;;;;-3.83;85.69;95539.69;4963971;28;20210;-78
2022/03/12 01:19:35;;;;;;;6.75;4.68;;;;;;;-3.88;86.01;95536.88;4962208;28;20206;-78
2022/03/12 01:22:07;;;;;;;10.80;5.05;;;;;;;-3.86;86.58;95534.81;4976204;28;20654;-78
2022/03/12 01:24:35;;;;;;;4.65;2.15;;;;;;;-3.67;86.42;95531.19;4962785;28;20226;-78
2022/03/12 01:27:05;;;;;;;5.55;3.45;;;;;;;-3.83;86.53;95532.56;4912244;28;1569399;-78
2022/03/12 01:29:35;;;;;;;12.07;5.35;;;;;;;-3.66;86.30;95536.25;4971532;28;20565;-79
2022/03/12 01:32:02;;;;;;;5.65;3.63;;;;;;;-3.36;86.77;95525.81;4968953;28;20636;-78
2022/03/12 01:34:29;;;;;;;9.18;5.28;;;;;;;-3.12;85.91;95518.84;4964265;28;20206;-78
2022/03/12 01:36:56;;;;;;;6.55;3.83;;;;;;;-2.93;83.98;95525.75;4964907;28;20214;-78
2022/03/12 01:39:24;;;;;;;6.20;2.53;;;;;;;-3.18;83.18;95537.47;4969137;28;20214;-78
2022/03/12 01:41:54;;;;;;;3.50;1.85;;;;;;;-3.49;83.97;95536.53;4968381;28;20688;-78
2022/03/12 01:44:22;;;;;;;3.45;2.17;;;;;;;-3.48;84.95;95532.03;4963072;28;20207;-77
2022/03/12 01:46:50;;;;;;;3.75;2.50;;;;;;;-3.55;84.80;95536.59;4963634;28;20231;-77
2022/03/12 01:49:19;;;;;;;5.03;3.10;;;;;;;-3.92;84.21;95535.66;4976855;28;20198;-78
2022/03/12 01:51:49;;;;;;;3.15;2.20;;;;;;;-4.16;85.54;95539.91;4964207;28;20215;-78
2022/03/12 01:54:20;;;;;;;4.10;1.73;;;;;;;-4.04;86.61;95536.34;4969350;28;20231;-77
2022/03/12 01:56:49;;;;;;;5.70;2.78;;;;;;;-3.83;85.46;95543.16;4969704;28;20737;-77
2022/03/12 01:59:16;;;;;;;6.75;2.13;;;;;;;-3.89;84.91;95538.69;4957481;28;20291;-77
2022/03/12 02:01:51;;;;;;;6.63;1.45;;;;;;;-3.73;84.33;95529.41;4970832;28;20202;-77
2022/03/12 02:04:20;;;;;;;5.05;2.05;;;;;;;-3.59;84.67;95531.75;4968044;28;20218;-77
2022/03/12 02:06:48;;;;;;;5.03;1.73;;;;;;;-3.56;85.05;95519.09;4964492;28;20218;-77
2022/03/12 02:09:16;;;;;;;5.03;2.10;;;;;;;-3.56;84.46;95508.50;4973434;28;20226;-77
2022/03/12 02:11:48;;;;;;;3.92;2.63;;;;;;;-3.52;83.46;95520.25;4965179;28;20557;-77
2022/03/12 02:14:18;;;;;;;2.70;1.83;;;;;;;-3.48;83.21;95516.16;4965317;28;20581;-76
2022/03/12 02:16:49;;;;;;;3.00;1.65;;;;;;;-3.70;83.81;95511.28;4962772;28;20323;-77
2022/03/12 02:19:17;;;;;;;10.35;2.80;;;;;;;-3.69;82.55;95518.16;4961741;28;20241;-77
2022/03/12 02:21:50;;;;;;;3.55;2.60;;;;;;;-3.61;81.66;95519.75;4968024;28;20207;-77
2022/03/12 02:24:20;;;;;;;3.85;2.65;;;;;;;-3.44;81.25;95526.09;4955353;28;20250;-77
2022/03/12 02:26:49;;;;;;;3.45;2.30;;;;;;;-3.35;80.28;95531.91;4955353;28;20250;-78
2022/03/12 02:29:19;;;;;;;4.13;2.10;;;;;;;-3.51;80.67;95527.19;4970547;28;20821;-77
2022/03/12 02:31:49;;;;;;;2.85;2.22;;;;;;;-3.25;79.96;95525.09;4974716;28;20197;-78
2022/03/12 02:34:21;;;;;;;10.80;2.35;;;;;;;-3.33;78.90;95509.50;4974940;28;20215;-77
2022/03/12 02:36:49;;;;;;;3.63;2.13;;;;;;;-3.31;78.24;95523.31;4965271;28;20199;-77
2022/03/12 02:39:19;;;;;;;3.75;2.28;;;;;;;-3.22;78.95;95526.50;4967865;28;20666;-77
2022/03/12 02:41:46;;;;;;;1.63;1.40;;;;;;;-3.35;75.74;95518.69;4967083;28;20229;-78
2022/03/12 02:44:20;;;;;;;1.63;1.35;;;;;;;-3.13;75.82;95525.16;4969279;28;20230;-77
2022/03/12 02:47:11;;;;;;;3.22;1.50;;;;;;;-3.23;75.61;95530.16;4969314;28;20601;-77
2022/03/12 02:49:42;;;;;;;6.43;2.05;;;;;;;-3.18;75.88;95537.47;4966634;28;20195;-77
2022/03/12 02:52:09;;;;;;;2.13;1.55;;;;;;;-3.00;73.83;95530.31;4962521;28;20195;-77
2022/03/12 02:54:37;;;;;;;2.03;1.10;;;;;;;-3.04;74.46;95547.72;4964660;28;20211;-77
2022/03/12 02:57:05;;;;;;;3.00;1.88;;;;;;;-3.00;75.10;95540.09;4968009;28;20199;-77
2022/03/12 02:59:33;;;;;;;3.55;2.10;;;;;;;-3.11;73.45;95544.31;4966101;28;20216;-78
2022/03/12 03:02:03;;;;;;;2.63;1.67;;;;;;;-3.24;74.03;95545.25;4961813;28;20669;-78
2022/03/12 03:04:40;;;;;;;1.45;1.15;;;;;;;-3.75;74.23;95544.69;4963417;28;20262;-77
2022/03/12 03:07:08;;;;;;;1.88;1.52;;;;;;;-3.88;74.93;95552.75;4963024;28;20649;-78
2022/03/12 03:09:38;;;;;;;4.10;2.10;;;;;;;-3.90;75.16;95558.25;4963064;28;20663;-78
2022/03/12 03:12:09;;;;;;;3.65;1.88;;;;;;;-4.11;76.78;95553.31;4968589;28;20254;-77
2022/03/12 03:14:43;;;;;;;2.60;1.60;;;;;;;-4.16;77.25;95561.88;4969284;28;20214;-77
2022/03/12 03:17:12;;;;;;;1.20;0.85;;;;;;;-4.10;72.92;95557.59;4965051;28;20638;-77
2022/03/12 03:19:39;;;;;;;3.58;1.90;;;;;;;-4.02;74.81;95558.13;4962947;28;20217;-78
2022/03/12 03:22:07;;;;;;;4.80;1.85;;;;;;;-3.92;73.38;95562.13;4965312;28;20207;-77
2022/03/12 03:24:36;;;;;;;2.20;1.67;;;;;;;-3.84;73.77;95565.34;4954807;28;20235;-78
2022/03/12 03:27:04;;;;;;;5.90;1.85;;;;;;;-3.61;75.10;95570.84;4964406;28;20238;-77
2022/03/12 03:29:34;;;;;;;4.22;2.60;;;;;;;-3.66;75.32;95573.31;4960545;28;20666;-79
2022/03/12 03:32:02;;;;;;;5.65;2.58;;;;;;;-3.29;74.20;95568.16;4962944;28;20266;-79
2022/03/12 03:34:30;;;;;;;2.40;2.00;;;;;;;-3.24;74.39;95560.34;4967846;28;20682;-77
2022/03/12 03:37:03;;;;;;;5.47;2.45;;;;;;;-3.01;73.01;95565.81;4955425;28;20207;-78
2022/03/12 03:39:30;;;;;;;7.57;2.65;;;;;;;-2.78;72.92;95562.50;4961640;28;20643;-77
2022/03/12 03:41:58;;;;;;;6.05;2.60;;;;;;;-2.80;73.11;95561.09;4974498;28;20701;-78
2022/03/12 03:44:28;;;;;;;3.17;1.92;;;;;;;-2.70;72.10;95567.50;4973106;28;20685;-78
2022/03/12 03:46:56;;;;;;;4.93;2.58;;;;;;;-2.51;73.07;95565.66;4959707;28;20301;-78
2022/03/12 03:49:25;;;;;;;3.85;1.45;;;;;;;-2.64;69.91;95571.13;4975573;28;20222;-77
2022/03/12 03:51:53;;;;;;;2.78;2.05;;;;;;;-2.84;69.76;95563.38;4961728;28;20809;-77
2022/03/12 03:54:20;;;;;;;3.17;1.90;;;;;;;-2.87;70.02;95572.56;4966976;28;20231;-77
2022/03/12 03:56:50;;;;;;;5.93;2.10;;;;;;;-3.18;70.72;95572.72;4969064;28;20202;-77
2022/03/12 03:59:19;;;;;;;2.88;1.65;;;;;;;-3.33;71.12;95567.75;4965446;28;20202;-78
2022/03/12 04:01:47;;;;;;;4.40;2.50;;;;;;;-2.93;71.02;95572.66;4962746;28;20202;-78
2022/03/12 04:04:14;;;;;;;5.85;1.90;;;;;;;-2.84;70.82;95573.16;4965017;28;20244;-78
2022/03/12 04:06:42;;;;;;;4.10;2.40;;;;;;;-3.18;71.76;95570.06;4966434;28;20728;-78
2022/03/12 04:09:09;;;;;;;3.75;2.17;;;;;;;-3.22;71.70;95574.19;4964397;28;20210;-78
2022/03/12 04:11:42;;;;;;;4.80;2.40;;;;;;;-2.98;71.23;95581.25;4962443;28;20305;-78
2022/03/12 04:14:10;;;;;;;2.45;1.88;;;;;;;-2.89;71.05;95574.66;4962648;28;20204;-77
2022/03/12 04:16:43;;;;;;;3.20;2.65;;;;;;;-2.84;71.60;95573.16;4958723;28;20206;-77
2022/03/12 04:19:11;;;;;;;2.75;1.88;;;;;;;-2.86;71.39;95579.50;4960691;28;20207;-77
2022/03/12 04:21:38;;;;;;;3.78;2.30;;;;;;;-2.93;72.55;95578.78;4966671;28;20203;-77
2022/03/12 04:24:05;;;;;;;11.73;3.20;;;;;;;-2.75;71.21;95574.53;4955439;28;20234;-77
2022/03/12 04:26:35;;;;;;;6.60;3.05;;;;;;;-2.89;71.97;95579.16;4966760;28;20242;-77
2022/03/12 04:29:08;;;;;;;4.45;2.65;;;;;;;-3.10;72.64;95580.38;4957018;28;20199;-78
2022/03/12 04:31:35;;;;;;;7.53;3.33;;;;;;;-2.98;71.94;95588.41;4956870;28;20510;-77
2022/03/12 04:34:07;;;;;;;8.80;3.53;;;;;;;-2.85;70.54;95585.63;4959456;28;20203;-78
2022/03/12 04:36:36;;;;;;;10.55;4.47;;;;;;;-2.91;70.51;95592.63;4974994;28;20192;-78
2022/03/12 04:39:04;;;;;;;7.07;3.65;;;;;;;-2.84;70.12;95589.88;4959006;28;20264;-77
2022/03/12 04:41:34;;;;;;;5.97;3.13;;;;;;;-2.78;69.75;95598.81;4962143;28;20199;-78
2022/03/12 04:44:01;;;;;;;6.47;3.38;;;;;;;-3.27;71.93;95603.16;4965869;28;20314;-78
2022/03/12 04:46:28;;;;;;;7.80;2.83;;;;;;;-3.51;73.11;95611.91;4963916;28;20209;-79
2022/03/12 04:48:55;;;;;;;7.47;2.83;;;;;;;-3.65;73.43;95612.00;4959700;28;20202;-77
2022/03/12 04:51:24;;;;;;;2.75;1.85;;;;;;;-4.12;76.72;95620.47;4972796;28;20217;-77
2022/03/12 04:53:57;;;;;;;1.85;1.25;;;;;;;-4.39;78.40;95619.78;4968560;28;20290;-76
2022/03/12 04:56:28;;;;;;;0.75;0.75;;;;;;;-4.56;78.91;95619.44;4966618;28;20199;-77
2022/03/12 04:58:56;;;;;;;4.03;1.88;;;;;;;-4.65;80.24;95615.41;4960808;28;20288;-77
2022/03/12 05:01:24;;;;;;;1.63;1.50;;;;;;;-4.64;80.58;95627.56;4973609;28;20198;-77
2022/03/12 05:03:51;;;;;;;0.68;0.60;;;;;;;-4.64;80.55;95617.00;4965812;28;20234;-77
2022/03/12 05:06:19;;;;;;;5.93;2.85;;;;;;;-4.41;80.41;95630.56;4965000;28;20233;-78
2022/03/12 05:08:48;;;;;;;5.47;1.70;;;;;;;-3.59;80.12;95621.75;4953184;28;20941;-78
2022/03/12 05:11:15;;;;;;;5.40;3.05;;;;;;;-3.14;77.80;95626.88;4953496;28;20203;-77
2022/03/12 05:13:42;;;;;;;5.28;3.15;;;;;;;-2.97;76.93;95629.78;4962420;28;20741;-78
2022/03/12 05:16:11;;;;;;;7.30;4.20;;;;;;;-2.65;74.67;95625.19;4972797;28;20214;-78
2022/03/12 05:18:41;;;;;;;6.78;3.55;;;;;;;-1.29;71.61;95627.25;4964945;28;20234;-77
2022/03/12 05:21:08;;;;;;;9.10;3.60;;;;;;;-0.62;68.38;95622.41;4969431;28;20621;-77
2022/03/12 05:23:35;;;;;;;13.57;5.57;;;;;;;-0.38;67.73;95624.81;4964581;28;20285;-77
2022/03/12 05:26:07;;;;;;;9.75;3.83;;;;;;;-0.33;66.44;95632.09;4959605;28;20218;-77
2022/03/12 05:28:39;;;;;;;7.40;4.10;;;;;;;-0.36;66.17;95627.22;4961963;28;20226;-77
2022/03/12 05:31:06;;;;;;;11.10;5.47;;;;;;;-0.47;66.24;95641.38;4961835;28;20708;-80
2022/03/12 05:33:34;;;;;;;9.70;5.25;;;;;;;-0.25;66.27;95636.22;4961087;28;20558;-80
2022/03/12 05:36:01;;;;;;;13.35;5.38;;;;;;;0.70;64.46;95631.91;4965205;28;20207;-80
2022/03/12 05:38:31;;;;;;;9.77;5.00;;;;;;;1.28;62.23;95630.69;4963946;28;20210;-81
2022/03/12 05:40:59;;;;;;;11.50;4.13;;;;;;;1.87;61.10;95630.97;4963237;28;20206;-78
2022/03/12 05:43:27;;;;;;;11.15;5.68;;;;;;;2.61;59.45;95641.97;4967076;28;20209;-79
2022/03/12 05:46:00;;;;;;;11.95;5.00;;;;;;;3.60;56.26;95640.63;4961582;28;20206;-80
2022/03/12 05:48:28;;;;;;;11.48;5.38;;;;;;;3.31;55.59;95649.00;4964770;28;20624;-82
2022/03/12 05:50:55;;;;;;;12.07;6.30;;;;;;;2.70;57.05;95651.16;4967605;28;20672;-80
2022/03/12 05:53:22;;;;;;;8.98;5.30;;;;;;;1.55;60.06;95654.03;4970442;28;20226;-80
2022/03/12 05:55:49;;;;;;;9.07;6.30;;;;;;;0.63;62.42;95665.94;4958776;28;20203;-81
2022/03/12 05:58:19;;;;;;;11.10;5.55;;;;;;;0.24;64.86;95669.47;4964799;28;20231;-80
2022/03/12 06:00:52;;;;;;;9.45;5.13;;;;;;;0.13;65.34;95671.13;4960276;28;20195;-79
2022/03/12 06:03:19;;;;;;;8.48;4.70;;;;;;;0.11;65.14;95672.41;4964920;28;20303;-78
2022/03/12 06:05:56;;;;;;;9.27;5.78;;;;;;;0.01;65.93;95662.31;4961437;28;20195;-78
2022/03/12 06:08:24;;;;;;;12.30;6.80;;;;;;;0.06;65.23;95666.97;4964021;28;20241;-79
2022/03/12 06:10:55;;;;;;;12.40;5.30;;;;;;;-0.34;66.40;95683.72;4965668;28;20237;-76
2022/03/12 06:13:27;;;;;;;9.52;4.97;;;;;;;-0.42;67.07;95692.06;4966185;28;20203;-78
2022/03/12 06:15:58;;;;;;;18.98;5.63;;;;;;;-0.55;67.42;95697.63;4961907;28;20732;-78
2022/03/12 06:18:27;;;;;;;10.30;5.18;;;;;;;-0.08;67.33;95693.84;4965890;28;20262;-77
2022/03/12 06:20:54;;;;;;;8.10;4.88;;;;;;;0.47;65.67;95690.69;4961910;28;20302;-79
2022/03/12 06:23:21;;;;;;;11.02;5.22;;;;;;;1.13;62.87;95693.69;4959924;28;20293;-81
2022/03/12 06:25:48;;;;;;;13.70;5.45;;;;;;;1.78;60.95;95696.56;4963638;28;20207;-78
2022/03/12 06:28:16;;;;;;;9.68;4.68;;;;;;;2.49;59.11;95697.47;4964954;28;20222;-77
2022/03/12 06:30:43;;;;;;;11.40;5.30;;;;;;;2.84;57.28;95689.81;4962350;28;20223;-81
2022/03/12 06:33:11;;;;;;;11.25;5.20;;;;;;;2.79;56.88;95694.31;4966164;28;20199;-81
2022/03/12 06:35:38;;;;;;;10.95;5.70;;;;;;;2.14;57.57;95695.19;4967062;28;20211;-81
2022/03/12 06:38:05;;;;;;;10.02;5.32;;;;;;;2.40;58.21;95694.44;4964188;28;20202;-82
2022/03/12 06:40:32;;;;;;;8.77;4.65;;;;;;;3.10;56.45;95695.41;4963390;28;20195;-80
2022/03/12 06:43:00;;;;;;;7.75;4.93;;;;;;;3.31;54.59;95704.41;4964564;28;20218;-78
2022/03/12 06:45:28;;;;;;;8.60;4.10;;;;;;;4.84;51.90;95694.25;4966624;28;20238;-76
2022/03/12 06:47:56;;;;;;;7.68;4.30;;;;;;;4.29;50.22;95695.69;4957864;28;20211;-76
2022/03/12 06:50:26;;;;;;;7.38;3.92;;;;;;;5.16;46.54;95687.88;4963082;28;20645;-77
2022/03/12 06:52:54;;;;;;;15.25;4.82;;;;;;;5.63;46.34;95691.09;4961558;28;20254;-75
2022/03/12 06:55:24;;;;;;;8.25;5.00;;;;;;;6.67;43.62;95683.31;4964747;28;20661;-79
2022/03/12 06:57:53;;;;;;;9.52;4.75;;;;;;;6.37;45.17;95690.44;4964332;28;20191;-77
2022/03/12 07:00:24;;;;;;;8.93;4.40;;;;;;;4.20;45.36;95702.63;4961396;28;20207;-80
2022/03/12 07:02:52;;;;;;;6.70;4.18;;;;;;;2.56;51.62;95714.13;4964132;28;20985;-77
2022/03/12 07:05:19;;;;;;;6.68;4.28;;;;;;;2.85;47.57;95707.50;4963915;28;20285;-79
2022/03/12 07:07:48;;;;;;;3.58;2.30;;;;;;;2.03;46.78;95725.50;4960362;28;20214;-78
2022/03/12 07:10:18;;;;;;;12.40;2.17;;;;;;;1.59;49.30;95721.94;4963667;28;20210;-77
2022/03/12 07:12:46;;;;;;;5.78;2.72;;;;;;;0.99;50.21;95738.53;4963906;28;20290;-76
2022/03/12 07:15:14;;;;;;;4.60;2.45;;;;;;;0.68;50.31;95729.22;4956128;28;20198;-75
2022/03/12 07:17:43;;;;;;;3.90;2.13;;;;;;;0.57;52.45;95738.03;4960677;28;20199;-80
2022/03/12 07:20:11;;;;;;;3.95;2.05;;;;;;;0.97;51.40;95743.31;4963420;28;20253;-79
2022/03/12 07:22:39;;;;;;;6.32;2.80;;;;;;;0.76;50.46;95747.47;4961015;28;20219;-78
2022/03/12 07:25:09;;;;;;;4.82;3.25;;;;;;;1.50;50.83;95745.56;4963206;28;20230;-77
2022/03/12 07:27:36;;;;;;;4.10;2.05;;;;;;;1.34;50.27;95749.03;4962684;28;20337;-78
2022/03/12 07:30:04;;;;;;;4.75;1.98;;;;;;;1.26;51.63;95758.22;4958449;28;20199;-77
2022/03/12 07:32:31;;;;;;;3.20;2.45;;;;;;;1.36;50.03;95757.63;4961673;28;20208;-80
2022/03/12 07:34:58;;;;;;;5.22;2.85;;;;;;;1.44;52.30;95757.19;4963423;28;20266;-82
2022/03/12 07:37:25;;;;;;;9.60;5.05;;;;;;;1.06;51.19;95763.22;4961129;28;20229;-79
2022/03/12 07:39:53;;;;;;;4.18;3.00;;;;;;;1.10;53.27;95769.69;4963874;28;20738;-74
2022/03/12 07:42:24;;;;;;;1.30;1.20;;;;;;;0.41;51.27;95776.91;4960837;28;20198;-78
2022/03/12 07:44:51;;;;;;;4.82;2.78;;;;;;;0.43;52.83;95774.81;4962482;28;20222;-78
2022/03/12 07:47:18;;;;;;;5.22;2.53;;;;;;;-0.37;55.53;95779.97;4959472;28;20210;-78
2022/03/12 07:49:47;;;;;;;2.63;1.65;;;;;;;-0.06;52.98;95776.97;4961273;28;20575;-77
2022/03/12 07:52:15;;;;;;;3.97;2.38;;;;;;;-0.69;52.62;95776.84;4962344;28;20341;-79
2022/03/12 07:54:42;;;;;;;0.98;0.73;;;;;;;-0.04;51.76;95777.56;4962985;28;20753;-75
2022/03/12 07:57:12;;;;;;;1.98;1.02;;;;;;;-0.08;51.90;95773.75;4964044;28;20231;-78
2022/03/12 07:59:40;;;;;;;3.95;2.20;;;;;;;0.03;52.52;95776.63;4962503;28;20237;-77
2022/03/12 08:02:07;;;;;;;7.28;2.65;;;;;;;0.15;50.69;95774.75;4958616;28;20245;-78
2022/03/12 08:04:35;;;;;;;3.22;1.50;;;;;;;-0.20;50.46;95786.25;4966552;28;20234;-77
2022/03/12 08:07:03;;;;;;;4.55;2.97;;;;;;;-0.52;50.16;95782.28;4960542;28;20249;-77
2022/03/12 08:09:30;;;;;;;2.55;1.45;;;;;;;-0.51;50.53;95778.59;4959756;28;20222;-77
2022/03/12 08:11:58;;;;;;;7.70;3.13;;;;;;;-1.39;50.36;95786.44;4966005;28;20230;-76
2022/03/12 08:14:28;;;;;;;3.47;2.55;;;;;;;-1.21;51.75;95795.16;4962061;28;20254;-77
2022/03/12 08:16:56;;;;;;;5.28;1.92;;;;;;;-0.33;52.57;95783.00;4960650;28;20277;-76
2022/03/12 08:19:23;;;;;;;5.97;3.35;;;;;;;0.02;50.96;95783.00;4959676;28;20563;-80
2022/03/12 08:21:52;;;;;;;4.07;2.38;;;;;;;-0.58;50.07;95788.53;4960097;28;20229;-78
2022/03/12 08:24:20;;;;;;;2.65;1.48;;;;;;;-0.36;50.58;95795.72;4963720;28;20242;-78
2022/03/12 08:26:48;;;;;;;4.40;2.08;;;;;;;-0.81;50.72;95784.78;4964151;28;20273;-79
2022/03/12 08:29:18;;;;;;;4.07;2.63;;;;;;;-0.65;52.11;95787.81;4959699;28;20199;-83
2022/03/12 08:31:49;;;;;;;5.18;1.88;;;;;;;-0.15;51.67;95786.38;4959316;28;20467;-76
2022/03/12 08:34:17;;;;;;;6.10;3.53;;;;;;;0.76;52.97;95784.00;4956523;28;20213;-79
2022/03/12 08:36:45;;;;;;;7.93;2.92;;;;;;;1.33;51.06;95780.25;4952325;28;20246;-77
2022/03/12 08:39:13;;;;;;;3.83;2.33;;;;;;;1.89;49.69;95780.34;4957423;28;20665;-80
2022/03/12 08:41:40;;;;;;;4.60;2.63;;;;;;;2.71;45.78;95775.84;4962969;28;20241;-77
2022/03/12 08:44:09;;;;;;;5.82;3.17;;;;;;;2.70;46.67;95774.22;4966771;28;20219;-77
2022/03/12 08:46:42;;;;;;;7.72;3.38;;;;;;;3.13;50.26;95777.91;4952687;28;20671;-76
2022/03/12 08:49:09;;;;;;;6.28;3.17;;;;;;;3.17;49.05;95779.81;4965545;28;20210;-78
2022/03/12 08:51:38;;;;;;;4.88;2.78;;;;;;;2.58;45.10;95775.41;4956994;28;20232;-79
2022/03/12 08:54:06;;;;;;;0.85;0.85;;;;;;;-0.04;49.37;95798.06;4953626;28;20211;-75
2022/03/12 08:56:33;;;;;;;5.65;3.13;;;;;;;1.09;51.60;95781.44;4952917;28;20565;-79
2022/03/12 08:59:00;;;;;;;5.68;3.05;;;;;;;2.54;49.14;95775.09;4971000;28;20202;-80
2022/03/12 09:01:29;;;;;;;7.95;3.75;;;;;;;3.06;48.62;95771.91;4966970;28;20214;-81
2022/03/12 09:03:57;;;;;;;7.03;4.07;;;;;;;3.19;47.68;95771.53;4971726;28;20296;-80
2022/03/12 09:06:27;;;;;;;4.55;2.22;;;;;;;2.90;44.79;95762.09;4958043;28;20230;-75
2022/03/12 09:08:55;;;;;;;4.13;1.25;;;;;;;1.25;45.69;95777.97;4960664;28;20646;-75
2022/03/12 09:11:25;;;;;;;9.95;4.50;;;;;;;0.03;46.83;95792.59;4972559;28;20292;-78
2022/03/12 09:13:55;;;;;;;6.57;3.63;;;;;;;-0.19;50.96;95803.03;4955579;28;20206;-80
2022/03/12 09:16:22;;;;;;;3.45;1.23;;;;;;;-0.64;48.81;95803.56;4956041;28;20219;-76
2022/03/12 09:18:50;;;;;;;5.50;2.92;;;;;;;-0.05;51.40;95799.91;4956340;28;20230;-82
2022/03/12 09:21:18;;;;;;;2.60;1.90;;;;;;;-0.78;50.47;95802.13;4968233;28;20250;-80
2022/03/12 09:23:45;;;;;;;3.80;2.45;;;;;;;-0.41;49.83;95805.47;4956953;28;20214;-81
2022/03/12 09:26:14;;;;;;;4.15;2.10;;;;;;;0.41;51.18;95803.56;4959602;28;20300;-84
2022/03/12 09:28:41;;;;;;;3.00;1.95;;;;;;;-0.98;48.38;95815.72;4966586;28;20236;-79
2022/03/12 09:31:09;;;;;;;3.83;2.22;;;;;;;-1.46;53.08;95819.19;4964834;28;20199;-79
2022/03/12 09:33:36;;;;;;;2.85;1.42;;;;;;;-1.52;51.03;95812.13;4965613;28;20666;-80
2022/03/12 09:36:03;;;;;;;3.35;2.28;;;;;;;-1.51;51.15;95805.78;4961785;28;20204;-82
2022/03/12 09:38:30;;;;;;;0.88;0.77;;;;;;;-1.23;49.11;95817.72;4964845;28;20202;-76
2022/03/12 09:40:57;;;;;;;4.00;2.03;;;;;;;-0.28;50.08;95815.88;4966825;28;20737;-79
2022/03/12 09:43:25;;;;;;;3.17;2.00;;;;;;;0.47;45.80;95796.47;4965037;28;20213;-80
2022/03/12 09:45:52;;;;;;;2.20;1.73;;;;;;;0.43;44.68;95796.13;4962972;28;21178;-79
2022/03/12 09:48:20;;;;;;;2.83;2.00;;;;;;;0.32;44.50;95779.13;4961738;28;20198;-85
2022/03/12 09:50:46;;;;;;;2.42;1.63;;;;;;;-0.65;44.18;95804.59;4964950;28;20219;-88
2022/03/12 09:53:13;;;;;;;4.15;1.98;;;;;;;-1.10;46.44;95805.06;4966580;28;20674;-83
2022/03/12 09:55:41;;;;;;;2.97;1.48;;;;;;;-0.77;46.72;95801.09;4963334;28;20202;-84
2022/03/12 09:58:08;;;;;;;2.97;1.00;;;;;;;-0.53;45.60;95801.94;4963285;28;20195;-82
2022/03/12 10:00:36;;;;;;;3.38;2.63;;;;;;;0.35;49.48;95783.19;4960795;28;20714;-81
2022/03/12 10:03:05;;;;;;;4.82;2.20;;;;;;;1.34;47.09;95783.72;4962746;28;20227;-81
2022/03/12 10:05:33;;;;;;;1.85;1.27;;;;;;;1.38;42.76;95784.84;4965814;28;20230;-80
2022/03/12 10:08:03;;;;;;;7.47;2.25;;;;;;;0.21;44.87;95787.16;4965915;28;20324;-84
2022/03/12 10:10:30;;;;;;;3.22;2.25;;;;;;;-0.47;44.21;95801.03;4965652;28;20686;-79
2022/03/12 10:12:57;;;;;;;4.70;2.50;;;;;;;-0.88;46.00;95810.66;4966349;28;20289;-78
2022/03/12 10:15:24;;;;;;;2.92;1.55;;;;;;;-0.34;45.69;95800.00;4965833;28;20210;-81
2022/03/12 10:17:53;;;;;;;3.58;2.17;;;;;;;0.26;44.96;95795.25;4961615;28;20219;-82
2022/03/12 10:20:21;;;;;;;5.57;1.98;;;;;;;0.80;45.97;95790.50;4964679;28;20190;-86
2022/03/12 10:22:48;;;;;;;3.90;2.42;;;;;;;0.33;43.12;95775.41;4968394;28;20229;-82
2022/03/12 10:25:16;;;;;;;3.47;2.08;;;;;;;0.77;43.65;95778.44;4962750;28;20249;-80
2022/03/12 10:27:44;;;;;;;1.52;1.05;;;;;;;-0.11;44.72;95786.69;4965725;28;20237;-78
2022/03/12 10:30:12;;;;;;;3.67;2.17;;;;;;;-0.35;45.78;95793.88;4969768;28;20222;-86
2022/03/12 10:32:44;;;;;;;2.90;1.98;;;;;;;-0.48;47.32;95784.25;4973829;28;20229;-84
2022/03/12 10:35:16;;;;;;;4.38;2.20;;;;;;;0.03;49.54;95779.28;4966623;28;20201;-85
2022/03/12 10:37:44;;;;;;;4.68;2.72;;;;;;;1.41;46.09;95771.84;4974738;28;20622;-84
2022/03/12 10:40:15;;;;;;;4.93;2.45;;;;;;;1.51;44.13;95770.38;4974025;28;20240;-83
2022/03/12 10:42:47;;;;;;;2.78;2.10;;;;;;;1.87;45.93;95769.91;4955667;28;20267;-84
2022/03/12 10:45:16;;;;;;;1.92;1.30;;;;;;;1.00;44.87;95774.84;4957833;28;20267;-82
2022/03/12 10:47:47;;;;;;;3.53;1.75;;;;;;;0.15;45.86;95793.41;4965968;28;20209;-85
2022/03/12 10:50:19;;;;;;;2.85;2.03;;;;;;;-0.28;45.91;95786.59;4966506;28;20210;-86
2022/03/12 10:52:49;;;;;;;1.83;1.58;;;;;;;0.55;46.34;95772.09;4965931;28;20191;-83
2022/03/12 10:55:19;;;;;;;3.85;2.22;;;;;;;0.94;46.44;95765.97;4969202;28;20253;-83
2022/03/12 10:58:08;;;;;;;4.03;2.28;;;;;;;1.67;42.19;95750.88;4964012;28;20203;-84
2022/03/12 11:00:38;;;;;;;5.18;2.65;;;;;;;2.22;41.50;95756.22;4961860;28;20187;-82
2022/03/12 11:03:10;;;;;;;3.58;2.20;;;;;;;3.63;44.46;95739.22;4963359;28;20199;-82
2022/03/12 11:05:43;;;;;;;3.67;2.00;;;;;;;3.73;40.49;95745.47;4961990;28;20219;-79
2022/03/12 11:08:23;;;;;;;3.20;2.10;;;;;;;2.73;41.06;95736.25;4963390;28;20278;-82
2022/03/12 11:10:52;;;;;;;4.60;2.40;;;;;;;1.40;44.49;95748.84;4963089;28;20306;-80
2022/03/12 11:13:34;;;;;;;3.65;2.35;;;;;;;1.44;46.55;95746.53;4964956;28;20203;-82
2022/03/12 11:16:07;;;;;;;7.32;2.72;;;;;;;2.23;47.64;95746.31;4963682;28;20205;-81
2022/03/12 11:18:34;;;;;;;1.73;1.42;;;;;;;3.10;44.73;95735.56;4962766;28;20218;-84
2022/03/12 11:21:04;;;;;;;2.78;2.30;;;;;;;3.53;43.49;95735.41;4957861;28;20768;-83
2022/03/12 11:23:32;;;;;;;5.90;2.78;;;;;;;2.33;40.84;95741.09;4960396;28;20195;-89
2022/03/12 11:26:06;;;;;;;1.45;1.20;;;;;;;2.36;42.52;95735.28;4961109;28;20233;-80
2022/03/12 11:28:36;;;;;;;1.60;1.05;;;;;;;1.89;42.79;95719.69;4959336;28;20234;-82
2022/03/12 11:31:04;;;;;;;2.33;1.80;;;;;;;1.84;43.11;95716.94;4965005;28;20262;-80
2022/03/12 11:33:32;;;;;;;1.00;0.85;;;;;;;1.70;42.28;95726.34;4959811;28;20205;-80
2022/03/12 11:36:00;;;;;;;4.13;2.15;;;;;;;1.64;44.73;95716.66;4960454;28;20289;-81
2022/03/12 11:38:29;;;;;;;3.80;2.20;;;;;;;2.67;43.95;95721.22;4962057;28;20233;-80
2022/03/12 11:41:05;;;;;;;3.05;2.03;;;;;;;2.32;45.83;95713.59;4956928;28;20465;-82
2022/03/12 11:43:39;;;;;;;5.70;2.00;;;;;;;3.27;44.02;95720.22;4963011;28;20661;-81